X  Cerrar Datos meteorológicos de aviación METAR     EHKD De Kooy Airport
Temperatura
52°F Temperatura
50°F Punto de rocío
94% Humedad



Viento
6 MPH
10 KM/H
3 M/S
5 NUDO



190°
S
Condiciones actuales

Claro Claro
Presión 1005.76 (hPa) - 29.7 (inHg)
Visibilidad 6 (milla) - 9.7 (km)
Aeropuerto
Código de aeropuerto EHKD

localidad: De Kooy Airport
Distancia: 34 (mi)

Metar:
EHKD 170055Z AUTO 19005KT 9999 NCD 11/10 Q1006 BLU

Hora: 17-06-2024 02:55 CEST